sensor_id;sensor_type;location;lat;lon;timestamp;temperature;humidity
57652;DHT22;43480;53.116;6.734;2023-02-28T00:00:03;3.60;99.90
57652;DHT22;43480;53.116;6.734;2023-02-28T00:02:41;3.60;99.90
57652;DHT22;43480;53.116;6.734;2023-02-28T00:05:08;3.60;99.90
57652;DHT22;43480;53.116;6.734;2023-02-28T00:07:34;3.60;99.90
57652;DHT22;43480;53.116;6.734;2023-02-28T00:10:00;3.60;99.90
57652;DHT22;43480;53.116;6.734;2023-02-28T00:12:25;3.60;99.90
57652;DHT22;43480;53.116;6.734;2023-02-28T00:14:51;3.60;99.90
57652;DHT22;43480;53.116;6.734;2023-02-28T00:17:16;3.60;99.90
57652;DHT22;43480;53.116;6.734;2023-02-28T00:19:50;3.60;99.90
57652;DHT22;43480;53.116;6.734;2023-02-28T00:22:16;3.60;99.90
57652;DHT22;43480;53.116;6.734;2023-02-28T00:24:42;3.60;99.90
57652;DHT22;43480;53.116;6.734;2023-02-28T00:27:07;3.60;99.90
57652;DHT22;43480;53.116;6.734;2023-02-28T00:29:33;3.60;99.90
57652;DHT22;43480;53.116;6.734;2023-02-28T00:31:58;3.60;99.90
57652;DHT22;43480;53.116;6.734;2023-02-28T00:34:24;3.60;99.90
57652;DHT22;43480;53.116;6.734;2023-02-28T00:36:49;3.60;99.90
57652;DHT22;43480;53.116;6.734;2023-02-28T00:39:15;3.60;99.90
57652;DHT22;43480;53.116;6.734;2023-02-28T00:41:41;3.70;99.90
57652;DHT22;43480;53.116;6.734;2023-02-28T00:44:06;3.70;99.90
57652;DHT22;43480;53.116;6.734;2023-02-28T00:46:32;3.60;99.90
57652;DHT22;43480;53.116;6.734;2023-02-28T00:48:57;3.60;99.90
57652;DHT22;43480;53.116;6.734;2023-02-28T00:51:23;3.60;99.90
57652;DHT22;43480;53.116;6.734;2023-02-28T00:53:49;3.60;99.90
57652;DHT22;43480;53.116;6.734;2023-02-28T00:56:14;3.60;99.90
57652;DHT22;43480;53.116;6.734;2023-02-28T00:58:40;3.50;99.90
57652;DHT22;43480;53.116;6.734;2023-02-28T01:01:05;3.60;99.90
57652;DHT22;43480;53.116;6.734;2023-02-28T01:03:31;3.60;99.90
57652;DHT22;43480;53.116;6.734;2023-02-28T01:05:57;3.60;99.90
57652;DHT22;43480;53.116;6.734;2023-02-28T01:08:23;3.60;99.90
57652;DHT22;43480;53.116;6.734;2023-02-28T01:10:48;3.50;99.90
57652;DHT22;43480;53.116;6.734;2023-02-28T01:13:14;3.50;99.90
57652;DHT22;43480;53.116;6.734;2023-02-28T01:15:40;3.50;99.90
57652;DHT22;43480;53.116;6.734;2023-02-28T01:18:07;3.60;99.90
57652;DHT22;43480;53.116;6.734;2023-02-28T01:20:32;3.60;99.90
57652;DHT22;43480;53.116;6.734;2023-02-28T01:22:58;3.60;99.90
57652;DHT22;43480;53.116;6.734;2023-02-28T01:25:23;3.60;99.90
57652;DHT22;43480;53.116;6.734;2023-02-28T01:27:49;3.70;99.90
57652;DHT22;43480;53.116;6.734;2023-02-28T01:30:14;3.60;99.90
57652;DHT22;43480;53.116;6.734;2023-02-28T01:32:40;3.60;99.90
57652;DHT22;43480;53.116;6.734;2023-02-28T01:35:05;3.60;99.90
57652;DHT22;43480;53.116;6.734;2023-02-28T01:37:31;3.70;99.90
57652;DHT22;43480;53.116;6.734;2023-02-28T01:39:56;3.60;99.90
57652;DHT22;43480;53.116;6.734;2023-02-28T01:42:22;3.60;99.90
57652;DHT22;43480;53.116;6.734;2023-02-28T01:44:55;3.60;99.90
57652;DHT22;43480;53.116;6.734;2023-02-28T01:47:22;3.60;99.90
57652;DHT22;43480;53.116;6.734;2023-02-28T01:49:48;3.60;99.90
57652;DHT22;43480;53.116;6.734;2023-02-28T01:52:14;3.70;99.90
57652;DHT22;43480;53.116;6.734;2023-02-28T01:54:44;3.70;99.90
57652;DHT22;43480;53.116;6.734;2023-02-28T01:57:13;3.70;99.90
57652;DHT22;43480;53.116;6.734;2023-02-28T01:59:41;3.70;99.90
57652;DHT22;43480;53.116;6.734;2023-02-28T02:02:11;3.70;99.90
57652;DHT22;43480;53.116;6.734;2023-02-28T02:04:39;3.70;99.90
57652;DHT22;43480;53.116;6.734;2023-02-28T02:07:07;3.70;99.90
57652;DHT22;43480;53.116;6.734;2023-02-28T02:09:33;3.70;99.90
57652;DHT22;43480;53.116;6.734;2023-02-28T02:11:58;3.70;99.90
57652;DHT22;43480;53.116;6.734;2023-02-28T02:14:59;3.70;99.90
57652;DHT22;43480;53.116;6.734;2023-02-28T02:27:35;3.70;99.90
57652;DHT22;43480;53.116;6.734;2023-02-28T02:30:12;3.70;99.90
57652;DHT22;43480;53.116;6.734;2023-02-28T02:38:15;3.70;99.90
57652;DHT22;43480;53.116;6.734;2023-02-28T02:40:43;3.60;99.90
57652;DHT22;43480;53.116;6.734;2023-02-28T02:43:15;3.60;99.90
57652;DHT22;43480;53.116;6.734;2023-02-28T02:48:09;3.60;99.90
57652;DHT22;43480;53.116;6.734;2023-02-28T02:50:39;3.60;99.90
57652;DHT22;43480;53.116;6.734;2023-02-28T02:53:06;3.60;99.90
57652;DHT22;43480;53.116;6.734;2023-02-28T02:55:33;3.60;99.90
57652;DHT22;43480;53.116;6.734;2023-02-28T02:58:01;3.60;99.90
57652;DHT22;43480;53.116;6.734;2023-02-28T03:00:29;3.60;99.90
57652;DHT22;43480;53.116;6.734;2023-02-28T03:02:56;3.60;99.90
57652;DHT22;43480;53.116;6.734;2023-02-28T03:05:27;3.60;99.90
57652;DHT22;43480;53.116;6.734;2023-02-28T03:07:53;3.60;99.90
57652;DHT22;43480;53.116;6.734;2023-02-28T03:10:26;3.60;99.90
57652;DHT22;43480;53.116;6.734;2023-02-28T03:12:54;3.60;99.90
57652;DHT22;43480;53.116;6.734;2023-02-28T03:15:27;3.60;99.90
57652;DHT22;43480;53.116;6.734;2023-02-28T03:20:27;3.60;99.90
57652;DHT22;43480;53.116;6.734;2023-02-28T03:23:01;3.50;99.90
57652;DHT22;43480;53.116;6.734;2023-02-28T03:28:00;3.50;99.90
57652;DHT22;43480;53.116;6.734;2023-02-28T03:30:31;3.50;99.90
57652;DHT22;43480;53.116;6.734;2023-02-28T03:33:00;3.50;99.90
57652;DHT22;43480;53.116;6.734;2023-02-28T03:35:37;3.50;99.90
57652;DHT22;43480;53.116;6.734;2023-02-28T03:38:09;3.50;99.90
57652;DHT22;43480;53.116;6.734;2023-02-28T03:40:39;3.60;99.90
57652;DHT22;43480;53.116;6.734;2023-02-28T03:43:09;3.50;99.90
57652;DHT22;43480;53.116;6.734;2023-02-28T03:45:36;3.50;99.90
57652;DHT22;43480;53.116;6.734;2023-02-28T03:48:25;3.50;99.90
57652;DHT22;43480;53.116;6.734;2023-02-28T03:50:49;3.50;99.90
57652;DHT22;43480;53.116;6.734;2023-02-28T03:53:25;3.40;99.90
57652;DHT22;43480;53.116;6.734;2023-02-28T03:55:54;3.40;99.90
57652;DHT22;43480;53.116;6.734;2023-02-28T03:58:24;3.30;99.90
57652;DHT22;43480;53.116;6.734;2023-02-28T04:00:57;3.30;99.90
57652;DHT22;43480;53.116;6.734;2023-02-28T04:03:24;3.30;99.90
57652;DHT22;43480;53.116;6.734;2023-02-28T04:05:53;3.20;99.90
57652;DHT22;43480;53.116;6.734;2023-02-28T04:08:20;3.20;99.90
57652;DHT22;43480;53.116;6.734;2023-02-28T04:10:48;3.20;99.90
57652;DHT22;43480;53.116;6.734;2023-02-28T04:13:16;3.20;99.90
57652;DHT22;43480;53.116;6.734;2023-02-28T04:15:41;3.20;99.90
57652;DHT22;43480;53.116;6.734;2023-02-28T04:18:07;3.20;99.90
57652;DHT22;43480;53.116;6.734;2023-02-28T04:20:32;3.20;99.90
57652;DHT22;43480;53.116;6.734;2023-02-28T04:22:58;3.20;99.90
57652;DHT22;43480;53.116;6.734;2023-02-28T04:25:23;3.20;99.90
57652;DHT22;43480;53.116;6.734;2023-02-28T04:27:49;3.20;99.90
57652;DHT22;43480;53.116;6.734;2023-02-28T04:30:14;3.20;99.90
57652;DHT22;43480;53.116;6.734;2023-02-28T04:32:40;3.20;99.90
57652;DHT22;43480;53.116;6.734;2023-02-28T04:35:06;3.20;99.90
57652;DHT22;43480;53.116;6.734;2023-02-28T04:37:32;3.20;99.90
57652;DHT22;43480;53.116;6.734;2023-02-28T04:40:00;3.20;99.90
57652;DHT22;43480;53.116;6.734;2023-02-28T04:42:27;3.20;99.90
57652;DHT22;43480;53.116;6.734;2023-02-28T04:45:00;3.20;99.90
57652;DHT22;43480;53.116;6.734;2023-02-28T04:47:26;3.20;99.90
57652;DHT22;43480;53.116;6.734;2023-02-28T04:49:51;3.20;99.90
57652;DHT22;43480;53.116;6.734;2023-02-28T04:52:17;3.20;99.90
57652;DHT22;43480;53.116;6.734;2023-02-28T04:54:43;3.20;99.90
57652;DHT22;43480;53.116;6.734;2023-02-28T04:57:08;3.20;99.90
57652;DHT22;43480;53.116;6.734;2023-02-28T04:59:34;3.20;99.90
57652;DHT22;43480;53.116;6.734;2023-02-28T05:01:59;3.20;99.90
57652;DHT22;43480;53.116;6.734;2023-02-28T05:04:25;3.10;99.90
57652;DHT22;43480;53.116;6.734;2023-02-28T05:06:50;3.20;99.90
57652;DHT22;43480;53.116;6.734;2023-02-28T05:09:16;3.10;99.90
57652;DHT22;43480;53.116;6.734;2023-02-28T05:11:41;3.10;99.90
57652;DHT22;43480;53.116;6.734;2023-02-28T05:14:09;3.10;99.90
57652;DHT22;43480;53.116;6.734;2023-02-28T05:16:36;3.10;99.90
57652;DHT22;43480;53.116;6.734;2023-02-28T05:19:01;3.00;99.90
57652;DHT22;43480;53.116;6.734;2023-02-28T05:21:28;3.00;99.90
57652;DHT22;43480;53.116;6.734;2023-02-28T05:23:55;3.00;99.90
57652;DHT22;43480;53.116;6.734;2023-02-28T05:26:20;3.00;99.90
57652;DHT22;43480;53.116;6.734;2023-02-28T05:28:46;3.00;99.90
57652;DHT22;43480;53.116;6.734;2023-02-28T05:31:11;3.10;99.90
57652;DHT22;43480;53.116;6.734;2023-02-28T05:33:37;3.00;99.90
57652;DHT22;43480;53.116;6.734;2023-02-28T05:36:03;3.00;99.90
57652;DHT22;43480;53.116;6.734;2023-02-28T05:38:29;3.00;99.90
57652;DHT22;43480;53.116;6.734;2023-02-28T05:40:54;3.00;99.90
57652;DHT22;43480;53.116;6.734;2023-02-28T05:43:20;3.00;99.90
57652;DHT22;43480;53.116;6.734;2023-02-28T05:45:45;3.00;99.90
57652;DHT22;43480;53.116;6.734;2023-02-28T05:48:11;3.00;99.90
57652;DHT22;43480;53.116;6.734;2023-02-28T05:50:36;3.00;99.90
57652;DHT22;43480;53.116;6.734;2023-02-28T05:53:02;3.00;99.90
57652;DHT22;43480;53.116;6.734;2023-02-28T05:55:27;3.00;99.90
57652;DHT22;43480;53.116;6.734;2023-02-28T05:57:53;3.00;99.90
57652;DHT22;43480;53.116;6.734;2023-02-28T06:00:19;3.00;99.90
57652;DHT22;43480;53.116;6.734;2023-02-28T06:02:44;3.00;99.90
57652;DHT22;43480;53.116;6.734;2023-02-28T06:05:13;3.00;99.90
57652;DHT22;43480;53.116;6.734;2023-02-28T06:07:38;2.90;99.90
57652;DHT22;43480;53.116;6.734;2023-02-28T06:10:04;2.90;99.90
57652;DHT22;43480;53.116;6.734;2023-02-28T06:12:29;2.90;99.90
57652;DHT22;43480;53.116;6.734;2023-02-28T06:14:55;2.90;99.90
57652;DHT22;43480;53.116;6.734;2023-02-28T06:17:21;2.80;99.90
57652;DHT22;43480;53.116;6.734;2023-02-28T06:19:46;2.80;99.90
57652;DHT22;43480;53.116;6.734;2023-02-28T06:22:13;2.80;99.90
57652;DHT22;43480;53.116;6.734;2023-02-28T06:24:38;2.80;99.90
57652;DHT22;43480;53.116;6.734;2023-02-28T06:27:04;2.80;99.90
57652;DHT22;43480;53.116;6.734;2023-02-28T06:29:34;2.70;99.90
57652;DHT22;43480;53.116;6.734;2023-02-28T06:32:00;2.70;99.90
57652;DHT22;43480;53.116;6.734;2023-02-28T06:34:25;2.70;99.90
57652;DHT22;43480;53.116;6.734;2023-02-28T06:36:51;2.70;99.90
57652;DHT22;43480;53.116;6.734;2023-02-28T06:39:17;2.70;99.90
57652;DHT22;43480;53.116;6.734;2023-02-28T06:41:43;2.70;99.90
57652;DHT22;43480;53.116;6.734;2023-02-28T06:44:15;2.70;99.90
57652;DHT22;43480;53.116;6.734;2023-02-28T06:46:41;2.70;99.90
57652;DHT22;43480;53.116;6.734;2023-02-28T06:49:07;2.70;99.90
57652;DHT22;43480;53.116;6.734;2023-02-28T06:51:36;2.70;99.90
57652;DHT22;43480;53.116;6.734;2023-02-28T06:54:02;2.70;99.90
57652;DHT22;43480;53.116;6.734;2023-02-28T06:56:28;2.70;99.90
57652;DHT22;43480;53.116;6.734;2023-02-28T06:58:54;2.70;99.90
57652;DHT22;43480;53.116;6.734;2023-02-28T07:01:19;2.70;99.90
57652;DHT22;43480;53.116;6.734;2023-02-28T07:03:45;2.70;99.90
57652;DHT22;43480;53.116;6.734;2023-02-28T07:06:11;2.70;99.90
57652;DHT22;43480;53.116;6.734;2023-02-28T07:08:37;2.80;99.90
57652;DHT22;43480;53.116;6.734;2023-02-28T07:11:03;2.80;99.90
57652;DHT22;43480;53.116;6.734;2023-02-28T07:13:28;2.80;99.90
57652;DHT22;43480;53.116;6.734;2023-02-28T07:15:58;2.90;99.90
57652;DHT22;43480;53.116;6.734;2023-02-28T07:18:24;2.90;99.90
57652;DHT22;43480;53.116;6.734;2023-02-28T07:20:50;2.90;99.90
57652;DHT22;43480;53.116;6.734;2023-02-28T07:23:16;2.90;99.90
57652;DHT22;43480;53.116;6.734;2023-02-28T07:25:41;2.90;99.90
57652;DHT22;43480;53.116;6.734;2023-02-28T07:28:07;2.90;99.90
57652;DHT22;43480;53.116;6.734;2023-02-28T07:30:33;3.00;99.90
57652;DHT22;43480;53.116;6.734;2023-02-28T07:32:58;3.00;99.90
57652;DHT22;43480;53.116;6.734;2023-02-28T07:35:24;3.00;99.90
57652;DHT22;43480;53.116;6.734;2023-02-28T07:37:49;3.00;99.90
57652;DHT22;43480;53.116;6.734;2023-02-28T07:40:15;3.00;99.90
57652;DHT22;43480;53.116;6.734;2023-02-28T07:42:41;3.00;99.90
57652;DHT22;43480;53.116;6.734;2023-02-28T07:45:07;3.10;99.90
57652;DHT22;43480;53.116;6.734;2023-02-28T07:47:33;3.10;99.90
57652;DHT22;43480;53.116;6.734;2023-02-28T07:49:59;3.20;99.90
57652;DHT22;43480;53.116;6.734;2023-02-28T07:52:25;3.20;99.90
57652;DHT22;43480;53.116;6.734;2023-02-28T07:54:50;3.20;99.90
57652;DHT22;43480;53.116;6.734;2023-02-28T07:57:16;3.20;99.90
57652;DHT22;43480;53.116;6.734;2023-02-28T07:59:42;3.30;99.90
57652;DHT22;43480;53.116;6.734;2023-02-28T08:02:14;3.30;99.90
57652;DHT22;43480;53.116;6.734;2023-02-28T08:04:40;3.40;99.90
57652;DHT22;43480;53.116;6.734;2023-02-28T08:07:05;3.50;99.90
57652;DHT22;43480;53.116;6.734;2023-02-28T08:09:31;3.50;99.90
57652;DHT22;43480;53.116;6.734;2023-02-28T08:11:56;3.60;99.90
57652;DHT22;43480;53.116;6.734;2023-02-28T08:14:22;3.70;99.90
57652;DHT22;43480;53.116;6.734;2023-02-28T08:16:47;3.80;99.90
57652;DHT22;43480;53.116;6.734;2023-02-28T08:19:13;3.80;99.90
57652;DHT22;43480;53.116;6.734;2023-02-28T08:21:38;3.90;99.90
57652;DHT22;43480;53.116;6.734;2023-02-28T08:24:05;3.90;99.90
57652;DHT22;43480;53.116;6.734;2023-02-28T08:26:30;3.90;99.90
57652;DHT22;43480;53.116;6.734;2023-02-28T08:28:56;3.90;99.90
57652;DHT22;43480;53.116;6.734;2023-02-28T08:31:21;3.90;99.90
57652;DHT22;43480;53.116;6.734;2023-02-28T08:33:48;3.90;99.90
57652;DHT22;43480;53.116;6.734;2023-02-28T08:36:16;3.80;99.90
57652;DHT22;43480;53.116;6.734;2023-02-28T08:38:42;3.90;99.90
57652;DHT22;43480;53.116;6.734;2023-02-28T08:41:09;3.90;99.90
57652;DHT22;43480;53.116;6.734;2023-02-28T08:43:35;3.90;99.90
57652;DHT22;43480;53.116;6.734;2023-02-28T08:46:00;3.90;99.90
57652;DHT22;43480;53.116;6.734;2023-02-28T08:48:26;4.00;99.90
57652;DHT22;43480;53.116;6.734;2023-02-28T08:50:59;4.10;99.90
57652;DHT22;43480;53.116;6.734;2023-02-28T08:53:25;4.20;99.90
57652;DHT22;43480;53.116;6.734;2023-02-28T08:56:00;4.30;99.90
57652;DHT22;43480;53.116;6.734;2023-02-28T08:58:26;4.40;99.90
57652;DHT22;43480;53.116;6.734;2023-02-28T09:00:52;4.50;99.90
57652;DHT22;43480;53.116;6.734;2023-02-28T09:03:17;4.50;99.90
57652;DHT22;43480;53.116;6.734;2023-02-28T09:05:55;4.50;99.90
57652;DHT22;43480;53.116;6.734;2023-02-28T09:08:21;4.50;99.90
57652;DHT22;43480;53.116;6.734;2023-02-28T09:10:47;4.40;99.90
57652;DHT22;43480;53.116;6.734;2023-02-28T09:13:12;4.40;99.90
57652;DHT22;43480;53.116;6.734;2023-02-28T09:15:38;4.40;99.90
57652;DHT22;43480;53.116;6.734;2023-02-28T09:18:04;4.40;99.90
57652;DHT22;43480;53.116;6.734;2023-02-28T09:20:29;4.40;99.90
57652;DHT22;43480;53.116;6.734;2023-02-28T09:22:55;4.40;99.90
57652;DHT22;43480;53.116;6.734;2023-02-28T09:25:21;4.40;99.90
57652;DHT22;43480;53.116;6.734;2023-02-28T09:27:46;4.30;99.90
57652;DHT22;43480;53.116;6.734;2023-02-28T09:30:12;4.40;99.90
57652;DHT22;43480;53.116;6.734;2023-02-28T09:32:38;4.40;99.90
57652;DHT22;43480;53.116;6.734;2023-02-28T09:35:03;4.40;99.90
57652;DHT22;43480;53.116;6.734;2023-02-28T09:37:29;4.50;99.90
57652;DHT22;43480;53.116;6.734;2023-02-28T09:39:56;4.50;99.90
57652;DHT22;43480;53.116;6.734;2023-02-28T09:42:24;4.60;99.90
57652;DHT22;43480;53.116;6.734;2023-02-28T09:44:51;4.60;99.90
57652;DHT22;43480;53.116;6.734;2023-02-28T09:49:46;4.70;99.90
57652;DHT22;43480;53.116;6.734;2023-02-28T09:52:16;4.80;99.90
57652;DHT22;43480;53.116;6.734;2023-02-28T09:54:43;4.90;99.90
57652;DHT22;43480;53.116;6.734;2023-02-28T09:57:13;4.90;99.90
57652;DHT22;43480;53.116;6.734;2023-02-28T10:09:47;5.20;99.90
57652;DHT22;43480;53.116;6.734;2023-02-28T10:12:15;5.30;99.90
57652;DHT22;43480;53.116;6.734;2023-02-28T10:14:42;5.30;99.90
57652;DHT22;43480;53.116;6.734;2023-02-28T10:17:14;5.40;99.90
57652;DHT22;43480;53.116;6.734;2023-02-28T10:24:44;5.60;99.90
57652;DHT22;43480;53.116;6.734;2023-02-28T10:29:44;5.70;99.90
57652;DHT22;43480;53.116;6.734;2023-02-28T10:32:10;5.80;99.90
57652;DHT22;43480;53.116;6.734;2023-02-28T10:34:36;5.90;99.90
57652;DHT22;43480;53.116;6.734;2023-02-28T10:37:02;6.00;99.90
57652;DHT22;43480;53.116;6.734;2023-02-28T10:39:36;6.10;99.90
57652;DHT22;43480;53.116;6.734;2023-02-28T10:42:03;6.00;99.90
57652;DHT22;43480;53.116;6.734;2023-02-28T10:44:28;6.00;99.90
57652;DHT22;43480;53.116;6.734;2023-02-28T10:46:54;6.00;99.90
57652;DHT22;43480;53.116;6.734;2023-02-28T10:49:24;6.20;99.90
57652;DHT22;43480;53.116;6.734;2023-02-28T10:51:52;6.20;99.90
57652;DHT22;43480;53.116;6.734;2023-02-28T10:54:19;6.30;99.90
57652;DHT22;43480;53.116;6.734;2023-02-28T10:56:45;6.50;99.90
57652;DHT22;43480;53.116;6.734;2023-02-28T10:59:28;6.60;99.90
57652;DHT22;43480;53.116;6.734;2023-02-28T11:01:54;6.70;99.90
57652;DHT22;43480;53.116;6.734;2023-02-28T11:07:02;6.70;99.90
57652;DHT22;43480;53.116;6.734;2023-02-28T11:09:29;6.80;99.90
57652;DHT22;43480;53.116;6.734;2023-02-28T11:11:56;6.90;99.90
57652;DHT22;43480;53.116;6.734;2023-02-28T11:14:22;7.00;99.90
57652;DHT22;43480;53.116;6.734;2023-02-28T11:16:49;7.10;99.90
57652;DHT22;43480;53.116;6.734;2023-02-28T11:19:19;7.20;99.90
57652;DHT22;43480;53.116;6.734;2023-02-28T11:22:08;7.30;99.90
57652;DHT22;43480;53.116;6.734;2023-02-28T11:24:35;7.50;99.90
57652;DHT22;43480;53.116;6.734;2023-02-28T11:27:02;7.60;99.90
57652;DHT22;43480;53.116;6.734;2023-02-28T11:29:32;7.80;99.90
57652;DHT22;43480;53.116;6.734;2023-02-28T11:34:29;8.10;99.90
57652;DHT22;43480;53.116;6.734;2023-02-28T11:36:56;8.30;99.90
57652;DHT22;43480;53.116;6.734;2023-02-28T11:39:22;8.50;99.90
57652;DHT22;43480;53.116;6.734;2023-02-28T11:41:55;8.40;99.90
57652;DHT22;43480;53.116;6.734;2023-02-28T11:44:29;8.30;99.90
57652;DHT22;43480;53.116;6.734;2023-02-28T11:52:20;8.70;99.90
57652;DHT22;43480;53.116;6.734;2023-02-28T11:59:56;8.70;99.90
57652;DHT22;43480;53.116;6.734;2023-02-28T12:02:28;8.40;99.90
57652;DHT22;43480;53.116;6.734;2023-02-28T12:05:09;8.10;99.90
57652;DHT22;43480;53.116;6.734;2023-02-28T12:12:58;7.70;99.90
57652;DHT22;43480;53.116;6.734;2023-02-28T12:20:45;7.40;99.90
57652;DHT22;43480;53.116;6.734;2023-02-28T12:23:19;7.50;99.90
57652;DHT22;43480;53.116;6.734;2023-02-28T12:28:24;7.40;99.90
57652;DHT22;43480;53.116;6.734;2023-02-28T12:30:56;7.40;99.90
57652;DHT22;43480;53.116;6.734;2023-02-28T12:33:26;7.40;99.90
57652;DHT22;43480;53.116;6.734;2023-02-28T12:35:54;7.30;99.90
57652;DHT22;43480;53.116;6.734;2023-02-28T12:38:22;7.20;99.90
57652;DHT22;43480;53.116;6.734;2023-02-28T12:40:53;7.10;99.90
57652;DHT22;43480;53.116;6.734;2023-02-28T12:43:19;7.10;99.90
57652;DHT22;43480;53.116;6.734;2023-02-28T12:49:00;7.40;99.90
57652;DHT22;43480;53.116;6.734;2023-02-28T12:50:59;7.60;99.90
57652;DHT22;43480;53.116;6.734;2023-02-28T12:58:43;8.70;99.90
57652;DHT22;43480;53.116;6.734;2023-02-28T13:08:53;9.30;99.90
57652;DHT22;43480;53.116;6.734;2023-02-28T13:11:31;9.30;99.90
57652;DHT22;43480;53.116;6.734;2023-02-28T13:13:58;9.20;99.90
57652;DHT22;43480;53.116;6.734;2023-02-28T13:16:24;9.20;99.90
57652;DHT22;43480;53.116;6.734;2023-02-28T13:18:49;9.40;99.90
57652;DHT22;43480;53.116;6.734;2023-02-28T13:21:22;9.60;99.90
57652;DHT22;43480;53.116;6.734;2023-02-28T13:29:20;10.00;99.90
57652;DHT22;43480;53.116;6.734;2023-02-28T13:34:40;9.90;99.90
57652;DHT22;43480;53.116;6.734;2023-02-28T13:39:48;9.70;99.90
57652;DHT22;43480;53.116;6.734;2023-02-28T13:42:31;9.70;99.90
57652;DHT22;43480;53.116;6.734;2023-02-28T13:55:46;8.90;99.90
57652;DHT22;43480;53.116;6.734;2023-02-28T14:03:42;8.30;99.90
57652;DHT22;43480;53.116;6.734;2023-02-28T14:06:29;8.10;99.90
57652;DHT22;43480;53.116;6.734;2023-02-28T14:09:02;8.00;99.90
57652;DHT22;43480;53.116;6.734;2023-02-28T14:11:33;8.00;99.90
57652;DHT22;43480;53.116;6.734;2023-02-28T14:13:59;8.30;99.90
57652;DHT22;43480;53.116;6.734;2023-02-28T14:16:35;8.80;99.90
57652;DHT22;43480;53.116;6.734;2023-02-28T14:19:02;9.20;99.90
57652;DHT22;43480;53.116;6.734;2023-02-28T14:21:34;9.40;99.90
57652;DHT22;43480;53.116;6.734;2023-02-28T14:24:19;9.50;99.90
57652;DHT22;43480;53.116;6.734;2023-02-28T14:27:35;9.60;99.90
57652;DHT22;43480;53.116;6.734;2023-02-28T14:34:53;9.80;99.90
57652;DHT22;43480;53.116;6.734;2023-02-28T14:37:20;9.60;99.90
57652;DHT22;43480;53.116;6.734;2023-02-28T14:39:49;9.40;99.90
57652;DHT22;43480;53.116;6.734;2023-02-28T14:44:55;9.40;99.90
57652;DHT22;43480;53.116;6.734;2023-02-28T14:47:25;9.90;99.90
57652;DHT22;43480;53.116;6.734;2023-02-28T14:49:53;10.60;99.90
57652;DHT22;43480;53.116;6.734;2023-02-28T14:54:44;11.60;89.10
57652;DHT22;43480;53.116;6.734;2023-02-28T14:59:56;12.40;82.30
57652;DHT22;43480;53.116;6.734;2023-02-28T15:02:23;12.90;76.30
57652;DHT22;43480;53.116;6.734;2023-02-28T15:04:56;13.20;76.40
57652;DHT22;43480;53.116;6.734;2023-02-28T15:07:22;13.70;78.20
57652;DHT22;43480;53.116;6.734;2023-02-28T15:10:11;14.00;77.80
57652;DHT22;43480;53.116;6.734;2023-02-28T15:12:39;14.50;76.60
57652;DHT22;43480;53.116;6.734;2023-02-28T15:15:06;14.70;75.70
57652;DHT22;43480;53.116;6.734;2023-02-28T15:17:33;15.00;74.00
57652;DHT22;43480;53.116;6.734;2023-02-28T15:19:59;15.20;70.90
57652;DHT22;43480;53.116;6.734;2023-02-28T15:22:35;15.30;71.10
57652;DHT22;43480;53.116;6.734;2023-02-28T15:25:01;15.00;69.50
57652;DHT22;43480;53.116;6.734;2023-02-28T15:27:29;14.30;69.70
57652;DHT22;43480;53.116;6.734;2023-02-28T15:29:58;13.60;71.70
57652;DHT22;43480;53.116;6.734;2023-02-28T15:32:28;12.80;72.70
57652;DHT22;43480;53.116;6.734;2023-02-28T15:34:54;12.00;74.70
57652;DHT22;43480;53.116;6.734;2023-02-28T15:39:52;10.80;77.70
57652;DHT22;43480;53.116;6.734;2023-02-28T15:42:18;10.70;80.90
57652;DHT22;43480;53.116;6.734;2023-02-28T15:44:44;10.70;82.40
57652;DHT22;43480;53.116;6.734;2023-02-28T15:47:17;10.70;85.90
57652;DHT22;43480;53.116;6.734;2023-02-28T15:49:49;10.60;86.90
57652;DHT22;43480;53.116;6.734;2023-02-28T15:52:16;10.60;86.40
57652;DHT22;43480;53.116;6.734;2023-02-28T15:54:42;10.50;89.30
57652;DHT22;43480;53.116;6.734;2023-02-28T15:57:12;10.50;91.80
57652;DHT22;43480;53.116;6.734;2023-02-28T15:59:38;10.60;94.90
57652;DHT22;43480;53.116;6.734;2023-02-28T16:02:12;10.60;95.60
57652;DHT22;43480;53.116;6.734;2023-02-28T16:04:53;10.60;97.40
57652;DHT22;43480;53.116;6.734;2023-02-28T16:07:19;10.50;98.70
57652;DHT22;43480;53.116;6.734;2023-02-28T16:09:44;10.50;99.80
57652;DHT22;43480;53.116;6.734;2023-02-28T16:12:10;10.50;92.60
57652;DHT22;43480;53.116;6.734;2023-02-28T16:14:38;10.40;95.10
57652;DHT22;43480;53.116;6.734;2023-02-28T16:17:05;10.20;93.30
57652;DHT22;43480;53.116;6.734;2023-02-28T16:19:31;10.10;98.60
57652;DHT22;43480;53.116;6.734;2023-02-28T16:21:57;10.10;99.20
57652;DHT22;43480;53.116;6.734;2023-02-28T16:24:22;10.00;99.90
57652;DHT22;43480;53.116;6.734;2023-02-28T16:26:48;10.00;99.90
57652;DHT22;43480;53.116;6.734;2023-02-28T16:29:27;10.00;99.90
57652;DHT22;43480;53.116;6.734;2023-02-28T16:31:53;10.00;99.90
57652;DHT22;43480;53.116;6.734;2023-02-28T16:34:19;10.00;99.90
57652;DHT22;43480;53.116;6.734;2023-02-28T16:36:46;9.80;99.90
57652;DHT22;43480;53.116;6.734;2023-02-28T16:39:11;9.50;99.90
57652;DHT22;43480;53.116;6.734;2023-02-28T16:41:37;9.20;99.90
57652;DHT22;43480;53.116;6.734;2023-02-28T16:44:02;8.90;99.90
57652;DHT22;43480;53.116;6.734;2023-02-28T16:46:34;8.60;99.90
57652;DHT22;43480;53.116;6.734;2023-02-28T16:49:00;8.30;99.90
57652;DHT22;43480;53.116;6.734;2023-02-28T16:51:26;8.00;99.90
57652;DHT22;43480;53.116;6.734;2023-02-28T16:53:51;7.80;99.90
57652;DHT22;43480;53.116;6.734;2023-02-28T16:56:21;7.50;99.90
57652;DHT22;43480;53.116;6.734;2023-02-28T16:58:47;7.30;99.90
57652;DHT22;43480;53.116;6.734;2023-02-28T17:01:13;7.10;99.90
57652;DHT22;43480;53.116;6.734;2023-02-28T17:03:38;6.90;99.90
57652;DHT22;43480;53.116;6.734;2023-02-28T17:06:12;6.80;99.90
57652;DHT22;43480;53.116;6.734;2023-02-28T17:08:41;6.60;99.90
57652;DHT22;43480;53.116;6.734;2023-02-28T17:11:06;6.40;99.90
57652;DHT22;43480;53.116;6.734;2023-02-28T17:13:33;6.30;99.90
57652;DHT22;43480;53.116;6.734;2023-02-28T17:15:59;6.10;99.90
57652;DHT22;43480;53.116;6.734;2023-02-28T17:18:25;5.90;99.90
57652;DHT22;43480;53.116;6.734;2023-02-28T17:20:51;5.80;99.90
57652;DHT22;43480;53.116;6.734;2023-02-28T17:23:17;5.60;99.90
57652;DHT22;43480;53.116;6.734;2023-02-28T17:25:43;5.40;99.90
57652;DHT22;43480;53.116;6.734;2023-02-28T17:28:19;5.30;99.90
57652;DHT22;43480;53.116;6.734;2023-02-28T17:30:44;5.10;99.90
57652;DHT22;43480;53.116;6.734;2023-02-28T17:33:12;5.00;99.90
57652;DHT22;43480;53.116;6.734;2023-02-28T17:35:37;4.90;99.90
57652;DHT22;43480;53.116;6.734;2023-02-28T17:38:03;4.80;99.90
57652;DHT22;43480;53.116;6.734;2023-02-28T17:40:28;4.70;99.90
57652;DHT22;43480;53.116;6.734;2023-02-28T17:42:54;4.70;99.90
57652;DHT22;43480;53.116;6.734;2023-02-28T17:45:22;4.60;99.90
57652;DHT22;43480;53.116;6.734;2023-02-28T17:47:48;4.60;99.90
57652;DHT22;43480;53.116;6.734;2023-02-28T17:50:16;4.50;99.90
57652;DHT22;43480;53.116;6.734;2023-02-28T17:52:42;4.40;99.90
57652;DHT22;43480;53.116;6.734;2023-02-28T17:55:08;4.40;99.90
57652;DHT22;43480;53.116;6.734;2023-02-28T17:57:34;4.20;99.90